sensor_id;sensor_type;location;lat;lon;timestamp;temperature;humidity
16060;DHT22;8134;49.552;7.632;2023-07-13T06:21:18;19.30;99.90
16060;DHT22;8134;49.552;7.632;2023-07-13T06:23:44;19.40;99.90
16060;DHT22;8134;49.552;7.632;2023-07-13T06:26:10;19.40;99.90
16060;DHT22;8134;49.552;7.632;2023-07-13T06:28:36;19.50;99.90
16060;DHT22;8134;49.552;7.632;2023-07-13T06:31:04;19.50;99.90
16060;DHT22;8134;49.552;7.632;2023-07-13T06:33:30;19.40;99.90
16060;DHT22;8134;49.552;7.632;2023-07-13T06:35:57;19.20;99.90
16060;DHT22;8134;49.552;7.632;2023-07-13T06:38:23;19.20;99.90
16060;DHT22;8134;49.552;7.632;2023-07-13T06:40:48;19.10;99.90
16060;DHT22;8134;49.552;7.632;2023-07-13T06:43:14;19.10;99.90
16060;DHT22;8134;49.552;7.632;2023-07-13T06:45:40;19.10;99.90
16060;DHT22;8134;49.552;7.632;2023-07-13T06:48:27;19.00;99.90
16060;DHT22;8134;49.552;7.632;2023-07-13T06:50:53;19.00;99.90
16060;DHT22;8134;49.552;7.632;2023-07-13T06:53:19;19.00;99.90
16060;DHT22;8134;49.552;7.632;2023-07-13T06:55:45;19.00;99.90
16060;DHT22;8134;49.552;7.632;2023-07-13T06:58:11;19.00;99.90
16060;DHT22;8134;49.552;7.632;2023-07-13T07:00:36;19.10;99.90
16060;DHT22;8134;49.552;7.632;2023-07-13T07:03:02;19.20;99.90
16060;DHT22;8134;49.552;7.632;2023-07-13T07:05:28;19.30;99.90
16060;DHT22;8134;49.552;7.632;2023-07-13T07:07:58;19.40;96.80
16060;DHT22;8134;49.552;7.632;2023-07-13T07:10:23;19.60;96.80
16060;DHT22;8134;49.552;7.632;2023-07-13T07:12:49;19.80;96.10
16060;DHT22;8134;49.552;7.632;2023-07-13T07:15:14;20.00;95.50
16060;DHT22;8134;49.552;7.632;2023-07-13T07:17:40;20.10;95.60
16060;DHT22;8134;49.552;7.632;2023-07-13T07:20:05;20.30;97.40
16060;DHT22;8134;49.552;7.632;2023-07-13T07:22:31;20.40;96.20
16060;DHT22;8134;49.552;7.632;2023-07-13T07:24:57;20.50;96.50
16060;DHT22;8134;49.552;7.632;2023-07-13T07:27:23;20.60;95.30
16060;DHT22;8134;49.552;7.632;2023-07-13T07:29:49;20.60;94.00
16060;DHT22;8134;49.552;7.632;2023-07-13T07:32:14;20.50;94.20
16060;DHT22;8134;49.552;7.632;2023-07-13T07:34:40;20.50;92.90
16060;DHT22;8134;49.552;7.632;2023-07-13T07:37:06;20.50;93.30
16060;DHT22;8134;49.552;7.632;2023-07-13T07:39:31;20.60;93.30
16060;DHT22;8134;49.552;7.632;2023-07-13T07:41:57;20.60;93.50
16060;DHT22;8134;49.552;7.632;2023-07-13T07:44:22;20.70;94.20
16060;DHT22;8134;49.552;7.632;2023-07-13T07:46:48;20.80;94.50
16060;DHT22;8134;49.552;7.632;2023-07-13T07:49:14;20.80;94.50
16060;DHT22;8134;49.552;7.632;2023-07-13T07:51:40;20.90;94.80
16060;DHT22;8134;49.552;7.632;2023-07-13T07:54:05;20.90;93.20
16060;DHT22;8134;49.552;7.632;2023-07-13T07:56:31;20.90;93.20
16060;DHT22;8134;49.552;7.632;2023-07-13T07:58:57;20.90;93.10
16060;DHT22;8134;49.552;7.632;2023-07-13T08:01:23;20.90;93.00
16060;DHT22;8134;49.552;7.632;2023-07-13T08:03:48;20.90;92.50
16060;DHT22;8134;49.552;7.632;2023-07-13T08:06:14;20.90;93.50
16060;DHT22;8134;49.552;7.632;2023-07-13T08:08:40;21.00;92.60
16060;DHT22;8134;49.552;7.632;2023-07-13T08:11:06;21.00;92.00
16060;DHT22;8134;49.552;7.632;2023-07-13T08:13:32;21.10;91.20
16060;DHT22;8134;49.552;7.632;2023-07-13T08:15:58;21.10;91.10
16060;DHT22;8134;49.552;7.632;2023-07-13T08:18:24;21.10;91.20
16060;DHT22;8134;49.552;7.632;2023-07-13T08:20:49;21.20;91.70
16060;DHT22;8134;49.552;7.632;2023-07-13T08:23:15;21.20;91.50
16060;DHT22;8134;49.552;7.632;2023-07-13T08:25:42;21.30;91.20
16060;DHT22;8134;49.552;7.632;2023-07-13T08:28:07;21.40;91.50
16060;DHT22;8134;49.552;7.632;2023-07-13T08:30:33;21.50;91.00
16060;DHT22;8134;49.552;7.632;2023-07-13T08:32:58;21.50;90.40
16060;DHT22;8134;49.552;7.632;2023-07-13T08:35:24;21.50;90.30
16060;DHT22;8134;49.552;7.632;2023-07-13T08:37:51;21.50;91.10
16060;DHT22;8134;49.552;7.632;2023-07-13T08:40:17;21.60;90.40
16060;DHT22;8134;49.552;7.632;2023-07-13T08:42:45;21.60;90.40
16060;DHT22;8134;49.552;7.632;2023-07-13T08:47:47;21.70;90.00
16060;DHT22;8134;49.552;7.632;2023-07-13T08:50:14;21.80;89.70
16060;DHT22;8134;49.552;7.632;2023-07-13T08:52:40;21.80;90.20
16060;DHT22;8134;49.552;7.632;2023-07-13T08:55:12;21.90;89.70
16060;DHT22;8134;49.552;7.632;2023-07-13T08:57:38;21.90;89.10
16060;DHT22;8134;49.552;7.632;2023-07-13T09:00:05;21.90;86.90
16060;DHT22;8134;49.552;7.632;2023-07-13T09:05:13;22.10;87.50
16060;DHT22;8134;49.552;7.632;2023-07-13T09:07:46;22.20;87.30
16060;DHT22;8134;49.552;7.632;2023-07-13T09:10:16;22.30;86.00
16060;DHT22;8134;49.552;7.632;2023-07-13T09:17:56;22.50;85.60
16060;DHT22;8134;49.552;7.632;2023-07-13T09:20:44;22.50;85.50
16060;DHT22;8134;49.552;7.632;2023-07-13T09:23:13;22.50;84.00
16060;DHT22;8134;49.552;7.632;2023-07-13T09:25:39;22.60;86.80
16060;DHT22;8134;49.552;7.632;2023-07-13T09:28:10;22.60;83.90
16060;DHT22;8134;49.552;7.632;2023-07-13T09:30:54;22.70;83.30
16060;DHT22;8134;49.552;7.632;2023-07-13T09:33:21;22.70;84.80
16060;DHT22;8134;49.552;7.632;2023-07-13T09:35:48;22.70;84.00
16060;DHT22;8134;49.552;7.632;2023-07-13T09:40:43;22.80;83.00
16060;DHT22;8134;49.552;7.632;2023-07-13T09:43:10;22.80;83.40
16060;DHT22;8134;49.552;7.632;2023-07-13T09:45:38;22.80;84.30
16060;DHT22;8134;49.552;7.632;2023-07-13T09:48:11;22.80;82.10
16060;DHT22;8134;49.552;7.632;2023-07-13T09:50:36;22.80;81.30
16060;DHT22;8134;49.552;7.632;2023-07-13T09:53:02;22.80;81.10
16060;DHT22;8134;49.552;7.632;2023-07-13T09:55:35;22.80;81.40
16060;DHT22;8134;49.552;7.632;2023-07-13T09:58:08;22.80;81.40
16060;DHT22;8134;49.552;7.632;2023-07-13T10:00:36;22.90;80.80
16060;DHT22;8134;49.552;7.632;2023-07-13T10:03:03;22.90;82.00
16060;DHT22;8134;49.552;7.632;2023-07-13T10:05:36;22.90;80.70
16060;DHT22;8134;49.552;7.632;2023-07-13T10:08:02;22.90;79.50
16060;DHT22;8134;49.552;7.632;2023-07-13T10:10:28;23.00;80.50
16060;DHT22;8134;49.552;7.632;2023-07-13T10:12:53;23.00;81.20
16060;DHT22;8134;49.552;7.632;2023-07-13T10:15:20;23.00;81.50
16060;DHT22;8134;49.552;7.632;2023-07-13T10:17:47;23.10;81.70
16060;DHT22;8134;49.552;7.632;2023-07-13T10:20:12;23.20;81.60
16060;DHT22;8134;49.552;7.632;2023-07-13T10:22:42;23.30;81.80
16060;DHT22;8134;49.552;7.632;2023-07-13T10:25:16;23.30;80.00
16060;DHT22;8134;49.552;7.632;2023-07-13T10:27:43;23.40;79.10
16060;DHT22;8134;49.552;7.632;2023-07-13T10:30:12;23.30;78.80
16060;DHT22;8134;49.552;7.632;2023-07-13T10:32:39;23.30;79.00
16060;DHT22;8134;49.552;7.632;2023-07-13T10:35:04;23.30;79.60
16060;DHT22;8134;49.552;7.632;2023-07-13T10:38:07;23.30;79.80
16060;DHT22;8134;49.552;7.632;2023-07-13T10:40:36;23.30;77.80
16060;DHT22;8134;49.552;7.632;2023-07-13T10:43:04;23.20;78.30
16060;DHT22;8134;49.552;7.632;2023-07-13T10:45:34;23.20;79.30
16060;DHT22;8134;49.552;7.632;2023-07-13T10:48:00;23.20;78.20
16060;DHT22;8134;49.552;7.632;2023-07-13T10:50:27;23.20;78.40
16060;DHT22;8134;49.552;7.632;2023-07-13T10:52:54;23.20;77.40
16060;DHT22;8134;49.552;7.632;2023-07-13T10:58:02;23.30;78.70
16060;DHT22;8134;49.552;7.632;2023-07-13T11:00:30;23.50;81.20
16060;DHT22;8134;49.552;7.632;2023-07-13T11:02:56;23.70;80.30
16060;DHT22;8134;49.552;7.632;2023-07-13T11:05:30;23.80;78.90
16060;DHT22;8134;49.552;7.632;2023-07-13T11:10:51;24.00;77.40
16060;DHT22;8134;49.552;7.632;2023-07-13T11:13:36;24.10;77.80
16060;DHT22;8134;49.552;7.632;2023-07-13T11:16:06;24.20;78.00
16060;DHT22;8134;49.552;7.632;2023-07-13T11:18:37;24.10;75.60
16060;DHT22;8134;49.552;7.632;2023-07-13T11:21:19;24.00;76.50
16060;DHT22;8134;49.552;7.632;2023-07-13T11:23:45;24.00;77.00
16060;DHT22;8134;49.552;7.632;2023-07-13T11:29:07;24.00;77.70
16060;DHT22;8134;49.552;7.632;2023-07-13T11:31:33;24.00;77.30
16060;DHT22;8134;49.552;7.632;2023-07-13T11:33:59;24.00;76.50
16060;DHT22;8134;49.552;7.632;2023-07-13T11:36:29;24.00;77.50
16060;DHT22;8134;49.552;7.632;2023-07-13T11:39:12;23.90;77.30
16060;DHT22;8134;49.552;7.632;2023-07-13T11:41:47;24.00;78.30
16060;DHT22;8134;49.552;7.632;2023-07-13T11:44:16;24.00;78.40
16060;DHT22;8134;49.552;7.632;2023-07-13T11:46:46;24.00;75.30
16060;DHT22;8134;49.552;7.632;2023-07-13T11:49:14;24.20;74.50
16060;DHT22;8134;49.552;7.632;2023-07-13T11:51:40;24.30;74.10
16060;DHT22;8134;49.552;7.632;2023-07-13T11:56:46;24.30;74.40
16060;DHT22;8134;49.552;7.632;2023-07-13T11:59:13;24.30;74.60
16060;DHT22;8134;49.552;7.632;2023-07-13T12:01:43;24.30;75.00
16060;DHT22;8134;49.552;7.632;2023-07-13T12:04:17;24.30;73.40
16060;DHT22;8134;49.552;7.632;2023-07-13T12:06:46;24.30;74.40
16060;DHT22;8134;49.552;7.632;2023-07-13T12:09:13;24.30;74.60
16060;DHT22;8134;49.552;7.632;2023-07-13T12:11:41;24.40;75.30
16060;DHT22;8134;49.552;7.632;2023-07-13T12:14:14;24.40;74.50
16060;DHT22;8134;49.552;7.632;2023-07-13T12:16:41;24.40;73.10
16060;DHT22;8134;49.552;7.632;2023-07-13T12:19:14;24.40;72.20
16060;DHT22;8134;49.552;7.632;2023-07-13T12:25:19;24.20;73.10
16060;DHT22;8134;49.552;7.632;2023-07-13T12:27:48;24.20;73.40
16060;DHT22;8134;49.552;7.632;2023-07-13T12:30:21;24.30;74.70
16060;DHT22;8134;49.552;7.632;2023-07-13T12:33:01;24.40;74.60
16060;DHT22;8134;49.552;7.632;2023-07-13T12:35:30;24.40;73.70
16060;DHT22;8134;49.552;7.632;2023-07-13T12:37:59;24.50;72.00
16060;DHT22;8134;49.552;7.632;2023-07-13T12:40:27;24.70;74.00
16060;DHT22;8134;49.552;7.632;2023-07-13T12:42:54;24.70;73.60
16060;DHT22;8134;49.552;7.632;2023-07-13T12:45:26;24.80;74.80
16060;DHT22;8134;49.552;7.632;2023-07-13T12:47:55;24.80;73.00
16060;DHT22;8134;49.552;7.632;2023-07-13T12:50:28;24.80;72.90
16060;DHT22;8134;49.552;7.632;2023-07-13T12:52:56;24.80;72.90
16060;DHT22;8134;49.552;7.632;2023-07-13T12:55:22;24.70;71.50
16060;DHT22;8134;49.552;7.632;2023-07-13T12:57:52;24.70;72.60
16060;DHT22;8134;49.552;7.632;2023-07-13T13:02:44;24.70;72.90
16060;DHT22;8134;49.552;7.632;2023-07-13T13:05:10;24.70;74.00
16060;DHT22;8134;49.552;7.632;2023-07-13T13:07:39;24.80;72.00
16060;DHT22;8134;49.552;7.632;2023-07-13T13:10:11;24.80;72.40
16060;DHT22;8134;49.552;7.632;2023-07-13T13:12:36;24.90;71.90
16060;DHT22;8134;49.552;7.632;2023-07-13T13:15:02;24.90;72.10
16060;DHT22;8134;49.552;7.632;2023-07-13T13:17:28;24.90;71.10
16060;DHT22;8134;49.552;7.632;2023-07-13T13:19:54;25.00;72.90
16060;DHT22;8134;49.552;7.632;2023-07-13T13:22:21;25.20;72.00
16060;DHT22;8134;49.552;7.632;2023-07-13T13:24:46;25.50;72.10
16060;DHT22;8134;49.552;7.632;2023-07-13T13:27:19;25.60;72.00
16060;DHT22;8134;49.552;7.632;2023-07-13T13:29:46;25.50;68.30
16060;DHT22;8134;49.552;7.632;2023-07-13T13:32:12;25.50;68.50
16060;DHT22;8134;49.552;7.632;2023-07-13T13:34:38;25.30;69.40
16060;DHT22;8134;49.552;7.632;2023-07-13T13:37:04;25.30;69.60
16060;DHT22;8134;49.552;7.632;2023-07-13T13:39:35;25.20;70.10
16060;DHT22;8134;49.552;7.632;2023-07-13T13:42:02;25.20;69.80
16060;DHT22;8134;49.552;7.632;2023-07-13T13:44:27;25.10;69.40
16060;DHT22;8134;49.552;7.632;2023-07-13T13:46:53;25.00;71.20
16060;DHT22;8134;49.552;7.632;2023-07-13T13:49:24;24.90;70.40
16060;DHT22;8134;49.552;7.632;2023-07-13T13:51:50;24.90;72.10
16060;DHT22;8134;49.552;7.632;2023-07-13T13:54:16;24.70;70.40
16060;DHT22;8134;49.552;7.632;2023-07-13T13:56:42;24.60;71.10
16060;DHT22;8134;49.552;7.632;2023-07-13T13:59:08;24.60;72.10
16060;DHT22;8134;49.552;7.632;2023-07-13T14:01:34;24.60;71.30
16060;DHT22;8134;49.552;7.632;2023-07-13T14:04:00;24.70;71.60
16060;DHT22;8134;49.552;7.632;2023-07-13T14:06:25;24.90;72.60
16060;DHT22;8134;49.552;7.632;2023-07-13T14:08:51;25.00;71.80
16060;DHT22;8134;49.552;7.632;2023-07-13T14:11:18;25.10;71.40
16060;DHT22;8134;49.552;7.632;2023-07-13T14:13:49;25.10;71.60
16060;DHT22;8134;49.552;7.632;2023-07-13T14:16:15;25.20;69.80
16060;DHT22;8134;49.552;7.632;2023-07-13T14:18:43;25.20;70.60
16060;DHT22;8134;49.552;7.632;2023-07-13T14:21:19;25.10;70.40
16060;DHT22;8134;49.552;7.632;2023-07-13T14:23:45;25.00;69.20
16060;DHT22;8134;49.552;7.632;2023-07-13T14:26:12;25.10;69.40
16060;DHT22;8134;49.552;7.632;2023-07-13T14:28:39;25.10;69.30
16060;DHT22;8134;49.552;7.632;2023-07-13T14:31:06;25.20;70.10
16060;DHT22;8134;49.552;7.632;2023-07-13T14:33:32;25.40;69.30
16060;DHT22;8134;49.552;7.632;2023-07-13T14:35:57;25.50;69.20
16060;DHT22;8134;49.552;7.632;2023-07-13T14:38:23;25.50;68.60
16060;DHT22;8134;49.552;7.632;2023-07-13T14:40:48;25.40;69.20
16060;DHT22;8134;49.552;7.632;2023-07-13T14:43:14;25.30;68.60
16060;DHT22;8134;49.552;7.632;2023-07-13T14:45:42;25.30;68.90
16060;DHT22;8134;49.552;7.632;2023-07-13T14:48:18;25.20;69.10
16060;DHT22;8134;49.552;7.632;2023-07-13T14:50:44;25.20;70.00
16060;DHT22;8134;49.552;7.632;2023-07-13T14:53:10;25.30;70.30
16060;DHT22;8134;49.552;7.632;2023-07-13T14:55:36;25.50;70.90
16060;DHT22;8134;49.552;7.632;2023-07-13T14:58:02;25.70;70.30
16060;DHT22;8134;49.552;7.632;2023-07-13T15:00:27;25.80;69.40
16060;DHT22;8134;49.552;7.632;2023-07-13T15:02:54;25.90;66.90
16060;DHT22;8134;49.552;7.632;2023-07-13T15:05:21;25.80;66.10
16060;DHT22;8134;49.552;7.632;2023-07-13T15:07:48;25.90;66.70
16060;DHT22;8134;49.552;7.632;2023-07-13T15:10:16;25.90;68.00
16060;DHT22;8134;49.552;7.632;2023-07-13T15:12:41;26.10;67.10
16060;DHT22;8134;49.552;7.632;2023-07-13T15:15:07;26.00;66.50
16060;DHT22;8134;49.552;7.632;2023-07-13T15:17:37;25.90;67.90
16060;DHT22;8134;49.552;7.632;2023-07-13T15:20:10;25.90;68.70
16060;DHT22;8134;49.552;7.632;2023-07-13T15:22:38;25.80;67.60
16060;DHT22;8134;49.552;7.632;2023-07-13T15:25:03;25.70;64.80
16060;DHT22;8134;49.552;7.632;2023-07-13T15:27:30;25.70;66.70
16060;DHT22;8134;49.552;7.632;2023-07-13T15:29:57;25.60;67.10
16060;DHT22;8134;49.552;7.632;2023-07-13T15:32:22;25.70;68.60
16060;DHT22;8134;49.552;7.632;2023-07-13T15:34:48;25.90;66.70
16060;DHT22;8134;49.552;7.632;2023-07-13T15:37:14;25.90;65.70
16060;DHT22;8134;49.552;7.632;2023-07-13T15:39:41;26.10;66.70
16060;DHT22;8134;49.552;7.632;2023-07-13T15:42:12;26.20;65.40
16060;DHT22;8134;49.552;7.632;2023-07-13T15:44:39;26.30;63.90
16060;DHT22;8134;49.552;7.632;2023-07-13T15:47:05;26.10;64.10
16060;DHT22;8134;49.552;7.632;2023-07-13T15:49:32;26.10;64.20
16060;DHT22;8134;49.552;7.632;2023-07-13T15:51:57;25.90;65.00
16060;DHT22;8134;49.552;7.632;2023-07-13T15:54:23;25.80;64.80
16060;DHT22;8134;49.552;7.632;2023-07-13T15:56:53;25.80;64.80
16060;DHT22;8134;49.552;7.632;2023-07-13T15:59:19;25.70;66.10
16060;DHT22;8134;49.552;7.632;2023-07-13T16:01:45;25.70;65.80
16060;DHT22;8134;49.552;7.632;2023-07-13T16:04:11;25.70;65.40
16060;DHT22;8134;49.552;7.632;2023-07-13T16:06:38;25.70;65.30
16060;DHT22;8134;49.552;7.632;2023-07-13T16:09:05;25.70;66.40
16060;DHT22;8134;49.552;7.632;2023-07-13T16:11:32;25.80;67.00
16060;DHT22;8134;49.552;7.632;2023-07-13T16:13:58;25.80;65.80
16060;DHT22;8134;49.552;7.632;2023-07-13T16:16:28;25.70;65.40
16060;DHT22;8134;49.552;7.632;2023-07-13T16:18:54;25.70;66.50
16060;DHT22;8134;49.552;7.632;2023-07-13T16:21:21;25.70;67.50
16060;DHT22;8134;49.552;7.632;2023-07-13T16:23:47;25.70;66.70
16060;DHT22;8134;49.552;7.632;2023-07-13T16:26:22;25.80;67.50
16060;DHT22;8134;49.552;7.632;2023-07-13T16:28:48;26.00;66.60
16060;DHT22;8134;49.552;7.632;2023-07-13T16:31:14;26.20;67.10
16060;DHT22;8134;49.552;7.632;2023-07-13T16:33:39;26.40;66.30
16060;DHT22;8134;49.552;7.632;2023-07-13T16:36:08;26.60;65.30
16060;DHT22;8134;49.552;7.632;2023-07-13T16:38:35;26.50;64.70
16060;DHT22;8134;49.552;7.632;2023-07-13T16:41:01;26.50;65.60
16060;DHT22;8134;49.552;7.632;2023-07-13T16:43:26;26.50;63.40
16060;DHT22;8134;49.552;7.632;2023-07-13T16:45:52;26.40;63.90
16060;DHT22;8134;49.552;7.632;2023-07-13T16:48:19;26.30;64.10
16060;DHT22;8134;49.552;7.632;2023-07-13T16:50:50;26.40;65.30
16060;DHT22;8134;49.552;7.632;2023-07-13T16:53:20;26.40;65.60
16060;DHT22;8134;49.552;7.632;2023-07-13T16:55:46;26.40;64.40
16060;DHT22;8134;49.552;7.632;2023-07-13T16:58:12;26.40;63.00
16060;DHT22;8134;49.552;7.632;2023-07-13T17:00:38;26.40;64.20
16060;DHT22;8134;49.552;7.632;2023-07-13T17:03:05;26.20;63.90
16060;DHT22;8134;49.552;7.632;2023-07-13T18:05:51;24.00;69.00
16060;DHT22;8134;49.552;7.632;2023-07-13T18:08:20;24.00;68.50
16060;DHT22;8134;49.552;7.632;2023-07-13T18:10:45;24.10;69.20
16060;DHT22;8134;49.552;7.632;2023-07-13T18:13:11;24.20;70.20
16060;DHT22;8134;49.552;7.632;2023-07-13T18:15:37;24.30;69.00
16060;DHT22;8134;49.552;7.632;2023-07-13T18:18:03;24.40;67.90
16060;DHT22;8134;49.552;7.632;2023-07-13T18:20:29;24.50;68.70
16060;DHT22;8134;49.552;7.632;2023-07-13T18:22:56;24.60;68.00
16060;DHT22;8134;49.552;7.632;2023-07-13T18:25:22;24.60;68.90
16060;DHT22;8134;49.552;7.632;2023-07-13T18:27:49;24.70;67.00
16060;DHT22;8134;49.552;7.632;2023-07-13T18:30:18;24.60;67.80
16060;DHT22;8134;49.552;7.632;2023-07-13T18:32:46;24.70;69.50
16060;DHT22;8134;49.552;7.632;2023-07-13T18:35:27;24.70;69.60
16060;DHT22;8134;49.552;7.632;2023-07-13T18:37:53;24.70;68.60
16060;DHT22;8134;49.552;7.632;2023-07-13T18:40:19;24.60;66.90
16060;DHT22;8134;49.552;7.632;2023-07-13T18:42:46;24.60;69.10
16060;DHT22;8134;49.552;7.632;2023-07-13T18:45:15;24.60;69.50
16060;DHT22;8134;49.552;7.632;2023-07-13T18:47:41;24.60;70.20
16060;DHT22;8134;49.552;7.632;2023-07-13T18:50:14;24.40;67.60
16060;DHT22;8134;49.552;7.632;2023-07-13T18:52:40;24.30;69.20
16060;DHT22;8134;49.552;7.632;2023-07-13T18:55:14;24.30;68.90
16060;DHT22;8134;49.552;7.632;2023-07-13T18:57:40;24.30;70.00
16060;DHT22;8134;49.552;7.632;2023-07-13T19:00:06;24.30;72.10
16060;DHT22;8134;49.552;7.632;2023-07-13T19:02:32;24.20;72.60
16060;DHT22;8134;49.552;7.632;2023-07-13T19:04:57;24.10;73.50
16060;DHT22;8134;49.552;7.632;2023-07-13T19:07:24;24.00;73.20
16060;DHT22;8134;49.552;7.632;2023-07-13T19:09:53;23.90;75.50
16060;DHT22;8134;49.552;7.632;2023-07-13T19:12:20;23.80;76.90
16060;DHT22;8134;49.552;7.632;2023-07-13T19:14:47;23.70;78.60
16060;DHT22;8134;49.552;7.632;2023-07-13T19:17:14;23.60;79.40
16060;DHT22;8134;49.552;7.632;2023-07-13T19:19:39;23.50;78.60
16060;DHT22;8134;49.552;7.632;2023-07-13T19:22:05;23.50;79.30
16060;DHT22;8134;49.552;7.632;2023-07-13T19:24:33;23.40;80.00
16060;DHT22;8134;49.552;7.632;2023-07-13T19:26:58;23.30;79.90
16060;DHT22;8134;49.552;7.632;2023-07-13T19:29:25;23.20;80.40
16060;DHT22;8134;49.552;7.632;2023-07-13T19:31:51;23.10;81.00
16060;DHT22;8134;49.552;7.632;2023-07-13T19:34:18;23.00;81.40
16060;DHT22;8134;49.552;7.632;2023-07-13T19:36:43;23.00;81.80
16060;DHT22;8134;49.552;7.632;2023-07-13T19:41:47;22.80;81.70
16060;DHT22;8134;49.552;7.632;2023-07-13T19:44:12;22.70;82.40
16060;DHT22;8134;49.552;7.632;2023-07-13T19:46:38;22.60;83.20
16060;DHT22;8134;49.552;7.632;2023-07-13T19:49:04;22.50;84.00
16060;DHT22;8134;49.552;7.632;2023-07-13T19:51:31;22.40;83.40
16060;DHT22;8134;49.552;7.632;2023-07-13T19:54:16;22.40;84.50
16060;DHT22;8134;49.552;7.632;2023-07-13T19:56:44;22.30;84.90
16060;DHT22;8134;49.552;7.632;2023-07-13T19:59:19;22.10;84.80
16060;DHT22;8134;49.552;7.632;2023-07-13T20:01:46;22.00;85.40
16060;DHT22;8134;49.552;7.632;2023-07-13T20:04:12;21.90;85.90
16060;DHT22;8134;49.552;7.632;2023-07-13T20:06:37;21.90;85.70
16060;DHT22;8134;49.552;7.632;2023-07-13T20:09:14;21.80;86.40
16060;DHT22;8134;49.552;7.632;2023-07-13T20:11:41;21.80;86.40
16060;DHT22;8134;49.552;7.632;2023-07-13T20:14:16;21.70;86.80
16060;DHT22;8134;49.552;7.632;2023-07-13T20:16:42;21.60;87.20
16060;DHT22;8134;49.552;7.632;2023-07-13T20:19:14;21.50;86.60
16060;DHT22;8134;49.552;7.632;2023-07-13T20:21:41;21.40;87.70
16060;DHT22;8134;49.552;7.632;2023-07-13T20:24:17;21.20;87.20
16060;DHT22;8134;49.552;7.632;2023-07-13T20:26:46;21.10;87.60
16060;DHT22;8134;49.552;7.632;2023-07-13T20:29:12;20.90;87.50
16060;DHT22;8134;49.552;7.632;2023-07-13T20:31:38;20.80;88.20
16060;DHT22;8134;49.552;7.632;2023-07-13T20:34:04;20.80;88.90
16060;DHT22;8134;49.552;7.632;2023-07-13T20:36:30;20.70;89.30
16060;DHT22;8134;49.552;7.632;2023-07-13T20:38:56;20.60;89.20
16060;DHT22;8134;49.552;7.632;2023-07-13T20:41:21;20.60;89.00
16060;DHT22;8134;49.552;7.632;2023-07-13T20:43:47;20.60;89.30
16060;DHT22;8134;49.552;7.632;2023-07-13T20:46:15;20.60;89.30
16060;DHT22;8134;49.552;7.632;2023-07-13T20:48:45;20.50;89.90
16060;DHT22;8134;49.552;7.632;2023-07-13T20:51:19;20.50;90.00
16060;DHT22;8134;49.552;7.632;2023-07-13T20:53:48;20.50;90.20
16060;DHT22;8134;49.552;7.632;2023-07-13T20:56:14;20.40;90.30
16060;DHT22;8134;49.552;7.632;2023-07-13T20:58:40;20.40;90.20
16060;DHT22;8134;49.552;7.632;2023-07-13T21:01:11;20.30;90.40
16060;DHT22;8134;49.552;7.632;2023-07-13T21:03:38;20.30;90.60
16060;DHT22;8134;49.552;7.632;2023-07-13T21:06:20;20.30;90.40
16060;DHT22;8134;49.552;7.632;2023-07-13T21:08:48;20.30;90.80
16060;DHT22;8134;49.552;7.632;2023-07-13T21:11:14;20.30;90.70
16060;DHT22;8134;49.552;7.632;2023-07-13T21:13:39;20.20;91.10
16060;DHT22;8134;49.552;7.632;2023-07-13T21:18:43;20.10;91.40
16060;DHT22;8134;49.552;7.632;2023-07-13T21:21:09;20.20;91.60
16060;DHT22;8134;49.552;7.632;2023-07-13T21:23:36;20.10;91.60
16060;DHT22;8134;49.552;7.632;2023-07-13T21:26:03;20.10;91.60
16060;DHT22;8134;49.552;7.632;2023-07-13T21:28:33;20.10;91.70
16060;DHT22;8134;49.552;7.632;2023-07-13T21:31:00;20.10;91.70
16060;DHT22;8134;49.552;7.632;2023-07-13T21:33:26;20.10;91.60
16060;DHT22;8134;49.552;7.632;2023-07-13T21:35:52;20.20;91.40
